sensor_id;sensor_type;location;lat;lon;timestamp;P1;P2;P0
71794;PMS7003;59641;45.188;5.712;2023-05-20T00:01:57;14.75;13.25;9.50
71794;PMS7003;59641;45.188;5.712;2023-05-20T00:04:23;12.50;12.50;10.50
71794;PMS7003;59641;45.188;5.712;2023-05-20T00:06:48;11.00;10.50;8.25
71794;PMS7003;59641;45.188;5.712;2023-05-20T00:09:14;10.75;10.75;8.50
71794;PMS7003;59641;45.188;5.712;2023-05-20T00:11:40;12.75;12.75;10.00
71794;PMS7003;59641;45.188;5.712;2023-05-20T00:14:06;15.75;14.50;8.75
71794;PMS7003;59641;45.188;5.712;2023-05-20T00:16:31;14.75;11.75;9.25
71794;PMS7003;59641;45.188;5.712;2023-05-20T00:18:57;11.25;11.25;9.00
71794;PMS7003;59641;45.188;5.712;2023-05-20T00:21:22;11.75;11.00;8.50
71794;PMS7003;59641;45.188;5.712;2023-05-20T00:23:47;11.50;10.00;8.00
71794;PMS7003;59641;45.188;5.712;2023-05-20T00:26:13;13.00;12.50;10.00
71794;PMS7003;59641;45.188;5.712;2023-05-20T00:28:38;11.75;11.75;10.00
71794;PMS7003;59641;45.188;5.712;2023-05-20T00:31:03;15.00;12.25;10.50
71794;PMS7003;59641;45.188;5.712;2023-05-20T00:33:29;16.75;15.50;10.75
71794;PMS7003;59641;45.188;5.712;2023-05-20T00:35:55;13.75;13.75;11.00
71794;PMS7003;59641;45.188;5.712;2023-05-20T00:38:20;16.25;15.25;11.50
71794;PMS7003;59641;45.188;5.712;2023-05-20T00:40:45;15.50;14.25;11.00
71794;PMS7003;59641;45.188;5.712;2023-05-20T00:43:11;13.25;12.00;8.50
71794;PMS7003;59641;45.188;5.712;2023-05-20T00:45:36;14.50;14.50;11.50
71794;PMS7003;59641;45.188;5.712;2023-05-20T00:48:02;16.00;15.00;10.00
71794;PMS7003;59641;45.188;5.712;2023-05-20T00:50:29;14.00;14.00;10.50
71794;PMS7003;59641;45.188;5.712;2023-05-20T00:52:55;15.60;13.80;10.00
71794;PMS7003;59641;45.188;5.712;2023-05-20T00:55:21;17.00;14.50;10.75
71794;PMS7003;59641;45.188;5.712;2023-05-20T00:57:47;19.00;16.25;11.00
71794;PMS7003;59641;45.188;5.712;2023-05-20T01:00:13;13.25;13.25;10.25
71794;PMS7003;59641;45.188;5.712;2023-05-20T01:02:39;12.50;12.00;10.00
71794;PMS7003;59641;45.188;5.712;2023-05-20T01:05:04;14.50;12.50;8.50
71794;PMS7003;59641;45.188;5.712;2023-05-20T01:07:30;14.75;14.75;10.25
71794;PMS7003;59641;45.188;5.712;2023-05-20T01:09:56;11.25;11.00;9.25
71794;PMS7003;59641;45.188;5.712;2023-05-20T01:12:39;13.00;12.75;9.50
71794;PMS7003;59641;45.188;5.712;2023-05-20T01:15:08;17.00;15.25;11.00
71794;PMS7003;59641;45.188;5.712;2023-05-20T01:17:37;15.25;15.25;12.00
71794;PMS7003;59641;45.188;5.712;2023-05-20T01:20:05;16.75;14.25;9.25
71794;PMS7003;59641;45.188;5.712;2023-05-20T01:22:35;14.00;14.00;10.20
71794;PMS7003;59641;45.188;5.712;2023-05-20T01:25:21;12.00;12.00;10.00
71794;PMS7003;59641;45.188;5.712;2023-05-20T01:27:48;16.00;15.00;11.00
71794;PMS7003;59641;45.188;5.712;2023-05-20T01:30:15;16.25;14.25;10.00
71794;PMS7003;59641;45.188;5.712;2023-05-20T01:32:46;13.00;12.50;10.00
71794;PMS7003;59641;45.188;5.712;2023-05-20T01:35:15;14.50;12.75;11.00
71794;PMS7003;59641;45.188;5.712;2023-05-20T01:37:41;14.25;13.25;9.25
71794;PMS7003;59641;45.188;5.712;2023-05-20T01:40:08;9.75;9.75;8.00
71794;PMS7003;59641;45.188;5.712;2023-05-20T01:42:37;15.00;14.00;10.00
71794;PMS7003;59641;45.188;5.712;2023-05-20T01:45:04;14.00;13.25;11.00
71794;PMS7003;59641;45.188;5.712;2023-05-20T01:47:30;17.25;17.25;13.00
71794;PMS7003;59641;45.188;5.712;2023-05-20T01:49:55;12.25;12.25;9.50
71794;PMS7003;59641;45.188;5.712;2023-05-20T01:52:21;13.75;13.25;10.50
71794;PMS7003;59641;45.188;5.712;2023-05-20T01:54:47;15.75;15.75;11.50
71794;PMS7003;59641;45.188;5.712;2023-05-20T01:57:21;16.00;15.25;12.50
71794;PMS7003;59641;45.188;5.712;2023-05-20T01:59:47;17.25;17.00;12.75
71794;PMS7003;59641;45.188;5.712;2023-05-20T02:02:13;16.25;15.00;12.75
71794;PMS7003;59641;45.188;5.712;2023-05-20T02:04:39;17.75;15.75;11.50
71794;PMS7003;59641;45.188;5.712;2023-05-20T02:07:06;12.25;12.25;9.00
71794;PMS7003;59641;45.188;5.712;2023-05-20T02:09:31;13.00;13.00;10.25
71794;PMS7003;59641;45.188;5.712;2023-05-20T02:11:57;15.00;14.00;11.25
71794;PMS7003;59641;45.188;5.712;2023-05-20T02:14:22;16.25;15.75;12.00
71794;PMS7003;59641;45.188;5.712;2023-05-20T02:16:47;12.75;12.75;7.75
71794;PMS7003;59641;45.188;5.712;2023-05-20T02:19:12;15.00;14.00;11.25
71794;PMS7003;59641;45.188;5.712;2023-05-20T02:21:40;15.75;15.25;10.75
71794;PMS7003;59641;45.188;5.712;2023-05-20T02:24:06;13.50;13.50;10.25
71794;PMS7003;59641;45.188;5.712;2023-05-20T02:26:32;15.00;15.00;11.00
71794;PMS7003;59641;45.188;5.712;2023-05-20T02:29:00;14.50;12.00;9.00
71794;PMS7003;59641;45.188;5.712;2023-05-20T02:31:25;12.75;12.75;10.00
71794;PMS7003;59641;45.188;5.712;2023-05-20T02:33:51;14.00;13.00;10.00
71794;PMS7003;59641;45.188;5.712;2023-05-20T02:36:16;12.50;12.50;9.25
71794;PMS7003;59641;45.188;5.712;2023-05-20T02:38:42;14.75;13.75;10.00
71794;PMS7003;59641;45.188;5.712;2023-05-20T02:41:08;14.25;13.50;10.00
71794;PMS7003;59641;45.188;5.712;2023-05-20T02:43:33;13.00;12.00;9.25
71794;PMS7003;59641;45.188;5.712;2023-05-20T02:46:00;15.00;13.25;10.00
71794;PMS7003;59641;45.188;5.712;2023-05-20T02:48:26;12.00;12.00;10.00
71794;PMS7003;59641;45.188;5.712;2023-05-20T02:50:51;11.25;10.25;9.25
71794;PMS7003;59641;45.188;5.712;2023-05-20T02:53:17;14.00;14.00;10.00
71794;PMS7003;59641;45.188;5.712;2023-05-20T02:55:44;11.00;11.00;9.00
71794;PMS7003;59641;45.188;5.712;2023-05-20T02:58:11;11.00;11.00;9.00
71794;PMS7003;59641;45.188;5.712;2023-05-20T03:00:37;13.20;11.60;9.00
71794;PMS7003;59641;45.188;5.712;2023-05-20T03:03:04;13.00;11.80;8.60
71794;PMS7003;59641;45.188;5.712;2023-05-20T03:05:31;13.25;11.00;9.00
71794;PMS7003;59641;45.188;5.712;2023-05-20T03:07:57;13.50;13.50;10.00
71794;PMS7003;59641;45.188;5.712;2023-05-20T03:10:23;10.75;10.75;10.00
71794;PMS7003;59641;45.188;5.712;2023-05-20T03:12:48;10.00;9.00;8.50
71794;PMS7003;59641;45.188;5.712;2023-05-20T03:15:13;12.25;12.25;9.00
71794;PMS7003;59641;45.188;5.712;2023-05-20T03:17:39;12.25;12.00;8.50
71794;PMS7003;59641;45.188;5.712;2023-05-20T03:20:04;13.00;13.00;10.00
71794;PMS7003;59641;45.188;5.712;2023-05-20T03:22:31;15.25;13.50;8.00
71794;PMS7003;59641;45.188;5.712;2023-05-20T03:24:56;12.50;12.50;10.00
71794;PMS7003;59641;45.188;5.712;2023-05-20T03:27:24;14.00;12.25;10.00
71794;PMS7003;59641;45.188;5.712;2023-05-20T03:29:50;9.40;9.40;7.60
71794;PMS7003;59641;45.188;5.712;2023-05-20T03:32:18;12.25;10.25;8.25
71794;PMS7003;59641;45.188;5.712;2023-05-20T03:34:44;11.75;11.75;9.00
71794;PMS7003;59641;45.188;5.712;2023-05-20T03:37:09;8.75;8.50;8.00
71794;PMS7003;59641;45.188;5.712;2023-05-20T03:39:34;10.00;10.00;7.75
71794;PMS7003;59641;45.188;5.712;2023-05-20T03:42:00;9.50;9.50;8.00
71794;PMS7003;59641;45.188;5.712;2023-05-20T03:44:25;10.25;8.75;6.75
71794;PMS7003;59641;45.188;5.712;2023-05-20T03:46:51;7.00;7.00;5.00
71794;PMS7003;59641;45.188;5.712;2023-05-20T03:49:16;10.75;10.75;8.25
71794;PMS7003;59641;45.188;5.712;2023-05-20T03:51:41;10.75;10.00;8.00
71794;PMS7003;59641;45.188;5.712;2023-05-20T03:54:07;13.50;12.50;9.25
71794;PMS7003;59641;45.188;5.712;2023-05-20T03:56:32;11.50;11.50;8.75
71794;PMS7003;59641;45.188;5.712;2023-05-20T03:58:57;9.25;9.25;7.00
71794;PMS7003;59641;45.188;5.712;2023-05-20T04:01:23;13.50;12.00;10.00
71794;PMS7003;59641;45.188;5.712;2023-05-20T04:03:49;9.20;9.20;7.40
71794;PMS7003;59641;45.188;5.712;2023-05-20T04:06:15;11.75;11.75;9.00
71794;PMS7003;59641;45.188;5.712;2023-05-20T04:08:40;10.00;10.00;8.25
71794;PMS7003;59641;45.188;5.712;2023-05-20T04:11:06;10.00;10.00;7.00
71794;PMS7003;59641;45.188;5.712;2023-05-20T04:13:31;11.00;9.75;8.25
71794;PMS7003;59641;45.188;5.712;2023-05-20T04:15:57;13.75;12.25;8.50
71794;PMS7003;59641;45.188;5.712;2023-05-20T04:18:24;10.00;10.00;9.00
71794;PMS7003;59641;45.188;5.712;2023-05-20T04:20:52;10.75;9.75;8.75
71794;PMS7003;59641;45.188;5.712;2023-05-20T04:23:19;8.60;8.00;6.00
71794;PMS7003;59641;45.188;5.712;2023-05-20T04:25:44;13.00;12.75;9.00
71794;PMS7003;59641;45.188;5.712;2023-05-20T04:28:10;15.75;14.75;11.00
71794;PMS7003;59641;45.188;5.712;2023-05-20T04:30:37;9.75;9.75;7.75
71794;PMS7003;59641;45.188;5.712;2023-05-20T04:33:03;12.25;10.75;8.75
71794;PMS7003;59641;45.188;5.712;2023-05-20T04:35:29;15.00;13.75;10.00
71794;PMS7003;59641;45.188;5.712;2023-05-20T04:37:54;11.25;11.25;9.25
71794;PMS7003;59641;45.188;5.712;2023-05-20T04:40:20;14.00;13.00;10.75
71794;PMS7003;59641;45.188;5.712;2023-05-20T04:42:46;10.00;10.00;7.50
71794;PMS7003;59641;45.188;5.712;2023-05-20T04:45:12;11.00;11.00;8.00
71794;PMS7003;59641;45.188;5.712;2023-05-20T04:47:38;13.00;11.75;8.25
71794;PMS7003;59641;45.188;5.712;2023-05-20T04:50:06;12.00;12.00;9.50
71794;PMS7003;59641;45.188;5.712;2023-05-20T04:52:37;12.00;12.00;10.25
71794;PMS7003;59641;45.188;5.712;2023-05-20T04:55:03;9.50;9.50;8.50
71794;PMS7003;59641;45.188;5.712;2023-05-20T04:57:34;11.00;11.00;9.00
71794;PMS7003;59641;45.188;5.712;2023-05-20T05:00:00;11.25;11.25;9.00
71794;PMS7003;59641;45.188;5.712;2023-05-20T05:02:26;12.25;12.25;9.00
71794;PMS7003;59641;45.188;5.712;2023-05-20T05:04:51;12.00;11.75;8.75
71794;PMS7003;59641;45.188;5.712;2023-05-20T05:07:16;12.50;11.00;8.75
71794;PMS7003;59641;45.188;5.712;2023-05-20T05:09:42;11.75;11.25;9.00
71794;PMS7003;59641;45.188;5.712;2023-05-20T05:12:07;11.00;11.00;9.25
71794;PMS7003;59641;45.188;5.712;2023-05-20T05:14:32;12.25;12.00;9.00
71794;PMS7003;59641;45.188;5.712;2023-05-20T05:16:58;10.75;10.75;8.75
71794;PMS7003;59641;45.188;5.712;2023-05-20T05:19:23;13.00;13.00;10.00
71794;PMS7003;59641;45.188;5.712;2023-05-20T05:21:48;8.50;8.50;7.00
71794;PMS7003;59641;45.188;5.712;2023-05-20T05:24:14;12.25;11.50;9.75
71794;PMS7003;59641;45.188;5.712;2023-05-20T05:26:39;14.25;13.50;11.00
71794;PMS7003;59641;45.188;5.712;2023-05-20T05:29:04;14.75;14.75;9.50
71794;PMS7003;59641;45.188;5.712;2023-05-20T05:31:30;12.25;12.00;9.00
71794;PMS7003;59641;45.188;5.712;2023-05-20T05:33:55;11.25;11.25;9.00
71794;PMS7003;59641;45.188;5.712;2023-05-20T05:36:22;12.50;12.50;9.75
71794;PMS7003;59641;45.188;5.712;2023-05-20T05:38:48;10.00;10.00;8.25
71794;PMS7003;59641;45.188;5.712;2023-05-20T05:41:14;12.50;12.50;9.25
71794;PMS7003;59641;45.188;5.712;2023-05-20T05:43:40;10.75;10.75;8.00
71794;PMS7003;59641;45.188;5.712;2023-05-20T05:46:05;13.75;13.75;10.50
71794;PMS7003;59641;45.188;5.712;2023-05-20T05:48:30;12.00;12.00;8.50
71794;PMS7003;59641;45.188;5.712;2023-05-20T05:50:56;12.00;10.50;8.25
71794;PMS7003;59641;45.188;5.712;2023-05-20T05:53:21;9.25;9.25;8.00
71794;PMS7003;59641;45.188;5.712;2023-05-20T05:55:46;11.00;10.25;9.00
71794;PMS7003;59641;45.188;5.712;2023-05-20T05:58:12;11.25;11.25;8.00
71794;PMS7003;59641;45.188;5.712;2023-05-20T06:00:37;8.50;8.00;7.25
71794;PMS7003;59641;45.188;5.712;2023-05-20T06:03:03;15.00;14.50;9.25
71794;PMS7003;59641;45.188;5.712;2023-05-20T06:05:29;13.25;11.00;9.00
71794;PMS7003;59641;45.188;5.712;2023-05-20T06:07:55;14.20;13.20;9.00
71794;PMS7003;59641;45.188;5.712;2023-05-20T06:10:21;10.75;10.75;9.00
71794;PMS7003;59641;45.188;5.712;2023-05-20T06:12:46;11.25;10.75;8.00
71794;PMS7003;59641;45.188;5.712;2023-05-20T06:15:11;11.00;11.00;8.00
71794;PMS7003;59641;45.188;5.712;2023-05-20T06:17:37;11.75;11.50;9.00
71794;PMS7003;59641;45.188;5.712;2023-05-20T06:20:03;10.50;8.75;8.00
71794;PMS7003;59641;45.188;5.712;2023-05-20T06:22:28;10.00;10.00;8.50
71794;PMS7003;59641;45.188;5.712;2023-05-20T06:24:54;10.00;10.00;7.00
71794;PMS7003;59641;45.188;5.712;2023-05-20T06:27:20;9.00;9.00;8.25
71794;PMS7003;59641;45.188;5.712;2023-05-20T06:29:46;11.00;11.00;8.00
71794;PMS7003;59641;45.188;5.712;2023-05-20T06:32:11;12.00;11.25;8.50
71794;PMS7003;59641;45.188;5.712;2023-05-20T06:34:36;11.00;10.25;8.00
71794;PMS7003;59641;45.188;5.712;2023-05-20T06:37:02;12.00;10.50;8.00
71794;PMS7003;59641;45.188;5.712;2023-05-20T06:39:27;11.25;11.00;9.00
71794;PMS7003;59641;45.188;5.712;2023-05-20T06:41:53;13.50;10.50;8.50
71794;PMS7003;59641;45.188;5.712;2023-05-20T06:44:18;10.50;10.50;7.50
71794;PMS7003;59641;45.188;5.712;2023-05-20T06:46:43;11.00;11.00;8.00
71794;PMS7003;59641;45.188;5.712;2023-05-20T06:49:09;12.00;12.00;8.75
71794;PMS7003;59641;45.188;5.712;2023-05-20T06:51:34;12.00;11.50;7.75
71794;PMS7003;59641;45.188;5.712;2023-05-20T06:54:00;11.50;11.50;8.75
71794;PMS7003;59641;45.188;5.712;2023-05-20T06:56:25;9.00;9.00;8.00
71794;PMS7003;59641;45.188;5.712;2023-05-20T06:58:51;11.75;10.75;8.75
71794;PMS7003;59641;45.188;5.712;2023-05-20T07:01:16;13.75;13.50;10.25
71794;PMS7003;59641;45.188;5.712;2023-05-20T07:03:42;11.50;10.75;7.25
71794;PMS7003;59641;45.188;5.712;2023-05-20T07:06:08;11.00;10.80;9.00
71794;PMS7003;59641;45.188;5.712;2023-05-20T07:08:33;12.00;11.00;8.00
71794;PMS7003;59641;45.188;5.712;2023-05-20T07:10:59;11.00;11.00;9.00
71794;PMS7003;59641;45.188;5.712;2023-05-20T07:13:24;9.25;9.25;8.00
71794;PMS7003;59641;45.188;5.712;2023-05-20T07:15:50;10.50;9.50;8.00
71794;PMS7003;59641;45.188;5.712;2023-05-20T07:18:15;11.75;11.75;9.25
71794;PMS7003;59641;45.188;5.712;2023-05-20T07:20:41;10.50;10.50;9.00
71794;PMS7003;59641;45.188;5.712;2023-05-20T07:23:06;9.25;8.75;5.25
71794;PMS7003;59641;45.188;5.712;2023-05-20T07:25:31;12.00;12.00;9.50
71794;PMS7003;59641;45.188;5.712;2023-05-20T07:27:57;13.75;10.00;8.50
71794;PMS7003;59641;45.188;5.712;2023-05-20T07:30:24;11.25;10.75;8.50
71794;PMS7003;59641;45.188;5.712;2023-05-20T07:32:50;15.40;14.00;11.00
71794;PMS7003;59641;45.188;5.712;2023-05-20T07:35:15;12.75;11.00;8.00
71794;PMS7003;59641;45.188;5.712;2023-05-20T07:37:41;10.75;10.75;9.00
71794;PMS7003;59641;45.188;5.712;2023-05-20T07:40:06;13.00;12.50;9.00
71794;PMS7003;59641;45.188;5.712;2023-05-20T07:42:32;14.75;13.00;10.00
71794;PMS7003;59641;45.188;5.712;2023-05-20T07:44:58;12.50;12.50;9.75
71794;PMS7003;59641;45.188;5.712;2023-05-20T07:47:23;9.50;9.50;8.00
71794;PMS7003;59641;45.188;5.712;2023-05-20T07:49:49;13.75;13.00;10.25
71794;PMS7003;59641;45.188;5.712;2023-05-20T07:52:14;14.00;13.75;9.00
71794;PMS7003;59641;45.188;5.712;2023-05-20T07:54:40;14.00;14.00;9.50
71794;PMS7003;59641;45.188;5.712;2023-05-20T07:57:05;14.00;14.00;11.75
71794;PMS7003;59641;45.188;5.712;2023-05-20T07:59:30;14.25;14.00;10.25
71794;PMS7003;59641;45.188;5.712;2023-05-20T08:01:56;13.25;12.75;10.00
71794;PMS7003;59641;45.188;5.712;2023-05-20T08:04:22;15.00;12.50;10.00
71794;PMS7003;59641;45.188;5.712;2023-05-20T08:06:47;14.25;14.25;9.50
71794;PMS7003;59641;45.188;5.712;2023-05-20T08:09:13;12.00;12.00;10.25
71794;PMS7003;59641;45.188;5.712;2023-05-20T08:11:39;17.75;17.25;13.25
71794;PMS7003;59641;45.188;5.712;2023-05-20T08:14:04;11.25;11.25;9.75
71794;PMS7003;59641;45.188;5.712;2023-05-20T08:16:30;14.00;14.00;10.25
71794;PMS7003;59641;45.188;5.712;2023-05-20T08:18:55;13.00;13.00;9.00
71794;PMS7003;59641;45.188;5.712;2023-05-20T08:21:21;13.25;13.00;9.50
71794;PMS7003;59641;45.188;5.712;2023-05-20T08:23:46;12.75;12.75;9.75
71794;PMS7003;59641;45.188;5.712;2023-05-20T08:26:12;14.25;13.00;10.00
71794;PMS7003;59641;45.188;5.712;2023-05-20T08:28:37;20.00;18.75;11.25
71794;PMS7003;59641;45.188;5.712;2023-05-20T08:31:04;15.60;11.40;10.00
71794;PMS7003;59641;45.188;5.712;2023-05-20T08:33:30;16.25;15.00;11.50
71794;PMS7003;59641;45.188;5.712;2023-05-20T08:35:55;16.75;15.75;10.75
71794;PMS7003;59641;45.188;5.712;2023-05-20T08:38:20;21.00;19.75;13.75
71794;PMS7003;59641;45.188;5.712;2023-05-20T08:40:50;14.75;13.00;10.00
71794;PMS7003;59641;45.188;5.712;2023-05-20T08:43:19;18.00;15.25;12.00
71794;PMS7003;59641;45.188;5.712;2023-05-20T08:45:46;18.75;15.75;12.00
71794;PMS7003;59641;45.188;5.712;2023-05-20T08:48:11;15.50;15.00;12.00
71794;PMS7003;59641;45.188;5.712;2023-05-20T08:50:37;14.75;14.75;11.00
71794;PMS7003;59641;45.188;5.712;2023-05-20T08:53:03;17.00;16.00;12.00
71794;PMS7003;59641;45.188;5.712;2023-05-20T08:58:29;13.25;13.25;10.00
71794;PMS7003;59641;45.188;5.712;2023-05-20T09:00:56;14.00;14.00;11.00
71794;PMS7003;59641;45.188;5.712;2023-05-20T09:03:22;13.00;13.00;9.25
71794;PMS7003;59641;45.188;5.712;2023-05-20T09:05:49;19.75;18.00;13.75
71794;PMS7003;59641;45.188;5.712;2023-05-20T09:08:15;18.75;16.50;12.00
71794;PMS7003;59641;45.188;5.712;2023-05-20T09:10:41;19.00;19.00;14.75
71794;PMS7003;59641;45.188;5.712;2023-05-20T09:13:07;17.00;16.25;13.75
71794;PMS7003;59641;45.188;5.712;2023-05-20T09:15:34;16.50;16.00;11.50
71794;PMS7003;59641;45.188;5.712;2023-05-20T09:18:03;14.00;14.00;11.00
71794;PMS7003;59641;45.188;5.712;2023-05-20T09:20:33;15.00;14.00;11.75
71794;PMS7003;59641;45.188;5.712;2023-05-20T09:23:01;15.25;15.25;13.25
71794;PMS7003;59641;45.188;5.712;2023-05-20T09:25:28;15.25;15.25;11.75
71794;PMS7003;59641;45.188;5.712;2023-05-20T09:27:53;13.75;12.25;9.00
71794;PMS7003;59641;45.188;5.712;2023-05-20T09:30:22;14.75;13.50;11.25
71794;PMS7003;59641;45.188;5.712;2023-05-20T09:32:54;17.00;16.50;12.00
71794;PMS7003;59641;45.188;5.712;2023-05-20T09:35:24;18.50;17.75;14.75
71794;PMS7003;59641;45.188;5.712;2023-05-20T09:37:51;14.00;14.00;10.50
71794;PMS7003;59641;45.188;5.712;2023-05-20T09:40:24;18.20;16.60;12.60
71794;PMS7003;59641;45.188;5.712;2023-05-20T09:45:31;17.50;15.00;12.00
71794;PMS7003;59641;45.188;5.712;2023-05-20T09:47:57;15.25;14.50;11.25
71794;PMS7003;59641;45.188;5.712;2023-05-20T09:50:25;16.50;15.00;11.75
71794;PMS7003;59641;45.188;5.712;2023-05-20T09:52:53;18.50;17.50;14.75
71794;PMS7003;59641;45.188;5.712;2023-05-20T09:55:20;18.00;15.50;12.50
71794;PMS7003;59641;45.188;5.712;2023-05-20T09:57:48;18.25;16.75;12.25
71794;PMS7003;59641;45.188;5.712;2023-05-20T10:00:14;20.50;18.00;14.00
71794;PMS7003;59641;45.188;5.712;2023-05-20T10:02:42;18.25;18.25;14.75
71794;PMS7003;59641;45.188;5.712;2023-05-20T10:05:16;20.25;19.00;14.00
71794;PMS7003;59641;45.188;5.712;2023-05-20T10:07:50;16.25;15.50;12.50
71794;PMS7003;59641;45.188;5.712;2023-05-20T10:10:34;14.50;14.50;11.50
71794;PMS7003;59641;45.188;5.712;2023-05-20T10:21:23;16.00;16.00;12.00
71794;PMS7003;59641;45.188;5.712;2023-05-20T10:23:49;16.25;16.25;12.50
71794;PMS7003;59641;45.188;5.712;2023-05-20T10:26:15;18.25;18.25;14.00
71794;PMS7003;59641;45.188;5.712;2023-05-20T10:28:41;20.00;19.50;15.00
71794;PMS7003;59641;45.188;5.712;2023-05-20T10:31:20;16.00;14.25;10.00
71794;PMS7003;59641;45.188;5.712;2023-05-20T10:33:46;15.25;14.75;11.50
71794;PMS7003;59641;45.188;5.712;2023-05-20T10:36:22;18.00;18.00;14.75
71794;PMS7003;59641;45.188;5.712;2023-05-20T10:38:54;15.00;13.75;10.25
71794;PMS7003;59641;45.188;5.712;2023-05-20T10:41:21;19.25;18.25;13.00
71794;PMS7003;59641;45.188;5.712;2023-05-20T10:43:58;16.00;14.00;10.75
71794;PMS7003;59641;45.188;5.712;2023-05-20T10:46:28;14.25;13.75;10.25
71794;PMS7003;59641;45.188;5.712;2023-05-20T10:48:54;12.25;12.25;9.00
71794;PMS7003;59641;45.188;5.712;2023-05-20T10:51:19;12.00;12.00;9.50
71794;PMS7003;59641;45.188;5.712;2023-05-20T10:53:45;17.25;15.25;11.75
71794;PMS7003;59641;45.188;5.712;2023-05-20T10:56:21;15.25;13.00;9.50
71794;PMS7003;59641;45.188;5.712;2023-05-20T10:58:47;12.00;12.00;8.50
71794;PMS7003;59641;45.188;5.712;2023-05-20T11:01:15;12.60;11.40;9.40
71794;PMS7003;59641;45.188;5.712;2023-05-20T11:03:42;15.25;14.50;10.50
71794;PMS7003;59641;45.188;5.712;2023-05-20T11:06:12;13.00;13.00;10.00
71794;PMS7003;59641;45.188;5.712;2023-05-20T11:08:37;13.00;12.00;10.00
71794;PMS7003;59641;45.188;5.712;2023-05-20T11:11:02;14.00;12.75;10.00
71794;PMS7003;59641;45.188;5.712;2023-05-20T11:13:28;12.50;12.50;10.00
71794;PMS7003;59641;45.188;5.712;2023-05-20T11:15:55;13.25;12.50;10.00
71794;PMS7003;59641;45.188;5.712;2023-05-20T11:18:20;11.75;11.75;8.50
71794;PMS7003;59641;45.188;5.712;2023-05-20T11:20:46;12.75;12.00;9.00
71794;PMS7003;59641;45.188;5.712;2023-05-20T11:23:12;12.75;10.75;8.25
71794;PMS7003;59641;45.188;5.712;2023-05-20T11:25:38;12.75;12.75;10.00
71794;PMS7003;59641;45.188;5.712;2023-05-20T11:28:07;11.50;11.25;8.75
71794;PMS7003;59641;45.188;5.712;2023-05-20T11:30:36;12.80;12.20;9.60
71794;PMS7003;59641;45.188;5.712;2023-05-20T11:33:02;12.00;12.00;10.25
71794;PMS7003;59641;45.188;5.712;2023-05-20T11:35:29;12.50;11.00;10.00
71794;PMS7003;59641;45.188;5.712;2023-05-20T11:40:22;14.00;14.00;11.50
71794;PMS7003;59641;45.188;5.712;2023-05-20T11:42:51;11.50;11.50;9.25
71794;PMS7003;59641;45.188;5.712;2023-05-20T11:45:18;15.50;15.50;11.00
71794;PMS7003;59641;45.188;5.712;2023-05-20T11:47:43;15.25;14.00;10.75
71794;PMS7003;59641;45.188;5.712;2023-05-20T11:50:08;13.00;12.50;9.50
71794;PMS7003;59641;45.188;5.712;2023-05-20T11:52:34;13.25;13.25;11.00
71794;PMS7003;59641;45.188;5.712;2023-05-20T11:55:00;15.25;14.75;10.50
71794;PMS7003;59641;45.188;5.712;2023-05-20T11:57:25;14.75;13.50;10.75
71794;PMS7003;59641;45.188;5.712;2023-05-20T11:59:50;13.00;13.00;10.50
71794;PMS7003;59641;45.188;5.712;2023-05-20T12:02:16;12.75;12.25;10.25
71794;PMS7003;59641;45.188;5.712;2023-05-20T12:04:41;15.50;14.00;10.50
71794;PMS7003;59641;45.188;5.712;2023-05-20T12:07:06;12.75;12.75;10.25
71794;PMS7003;59641;45.188;5.712;2023-05-20T12:09:33;14.00;12.20;10.00
71794;PMS7003;59641;45.188;5.712;2023-05-20T12:11:59;14.25;12.75;10.00
71794;PMS7003;59641;45.188;5.712;2023-05-20T12:14:25;13.00;12.75;10.50
71794;PMS7003;59641;45.188;5.712;2023-05-20T12:16:50;16.00;16.00;12.00
71794;PMS7003;59641;45.188;5.712;2023-05-20T12:19:17;15.00;15.00;11.00
71794;PMS7003;59641;45.188;5.712;2023-05-20T12:21:43;13.00;12.00;9.75
71794;PMS7003;59641;45.188;5.712;2023-05-20T12:24:11;14.50;14.50;11.50
71794;PMS7003;59641;45.188;5.712;2023-05-20T12:26:37;15.25;15.25;11.75
71794;PMS7003;59641;45.188;5.712;2023-05-20T12:29:02;16.50;14.75;11.50
71794;PMS7003;59641;45.188;5.712;2023-05-20T12:31:27;13.00;13.00;9.50
71794;PMS7003;59641;45.188;5.712;2023-05-20T12:33:53;15.25;15.25;11.25
71794;PMS7003;59641;45.188;5.712;2023-05-20T12:36:18;13.50;13.50;10.75
71794;PMS7003;59641;45.188;5.712;2023-05-20T12:38:43;17.50;17.25;12.50
71794;PMS7003;59641;45.188;5.712;2023-05-20T12:41:09;17.75;17.75;13.00
71794;PMS7003;59641;45.188;5.712;2023-05-20T12:43:34;20.50;18.75;12.75
71794;PMS7003;59641;45.188;5.712;2023-05-20T12:46:01;17.00;15.25;11.25
71794;PMS7003;59641;45.188;5.712;2023-05-20T12:48:27;15.00;14.60;10.80
71794;PMS7003;59641;45.188;5.712;2023-05-20T12:50:52;15.25;14.25;11.50
71794;PMS7003;59641;45.188;5.712;2023-05-20T12:53:18;13.25;13.25;10.00
71794;PMS7003;59641;45.188;5.712;2023-05-20T12:55:43;15.50;13.50;10.50
71794;PMS7003;59641;45.188;5.712;2023-05-20T12:58:09;19.25;19.00;14.25
71794;PMS7003;59641;45.188;5.712;2023-05-20T13:00:34;16.00;15.75;12.75
71794;PMS7003;59641;45.188;5.712;2023-05-20T13:03:00;17.25;15.75;12.75
71794;PMS7003;59641;45.188;5.712;2023-05-20T13:05:25;18.75;18.00;13.00
71794;PMS7003;59641;45.188;5.712;2023-05-20T13:07:51;13.75;13.75;11.50
71794;PMS7003;59641;45.188;5.712;2023-05-20T13:10:16;13.25;13.25;10.50
71794;PMS7003;59641;45.188;5.712;2023-05-20T13:12:42;14.50;13.25;10.25
71794;PMS7003;59641;45.188;5.712;2023-05-20T13:15:10;13.25;13.25;12.00
71794;PMS7003;59641;45.188;5.712;2023-05-20T13:17:38;17.75;16.75;12.50
71794;PMS7003;59641;45.188;5.712;2023-05-20T13:20:04;15.50;14.25;11.00
71794;PMS7003;59641;45.188;5.712;2023-05-20T13:22:31;17.25;15.50;11.00
71794;PMS7003;59641;45.188;5.712;2023-05-20T13:24:56;12.50;12.25;10.00
71794;PMS7003;59641;45.188;5.712;2023-05-20T13:27:22;17.00;15.75;13.75
71794;PMS7003;59641;45.188;5.712;2023-05-20T13:29:47;19.50;19.50;14.00
71794;PMS7003;59641;45.188;5.712;2023-05-20T13:32:12;16.75;16.00;12.00
71794;PMS7003;59641;45.188;5.712;2023-05-20T13:34:38;14.50;14.00;11.25
71794;PMS7003;59641;45.188;5.712;2023-05-20T13:37:04;17.00;16.00;12.00
71794;PMS7003;59641;45.188;5.712;2023-05-20T13:39:29;15.25;15.00;11.00
71794;PMS7003;59641;45.188;5.712;2023-05-20T13:41:55;18.25;16.75;13.50
71794;PMS7003;59641;45.188;5.712;2023-05-20T13:44:20;14.50;13.25;11.00
71794;PMS7003;59641;45.188;5.712;2023-05-20T13:46:45;16.25;16.25;12.00
71794;PMS7003;59641;45.188;5.712;2023-05-20T13:49:11;13.00;13.00;12.00
71794;PMS7003;59641;45.188;5.712;2023-05-20T13:51:36;14.50;14.25;10.50
71794;PMS7003;59641;45.188;5.712;2023-05-20T13:54:02;16.00;15.00;12.25
71794;PMS7003;59641;45.188;5.712;2023-05-20T13:56:27;14.50;14.50;11.25
71794;PMS7003;59641;45.188;5.712;2023-05-20T13:58:53;16.75;14.75;12.00
71794;PMS7003;59641;45.188;5.712;2023-05-20T14:01:18;20.50;17.00;12.00
71794;PMS7003;59641;45.188;5.712;2023-05-20T14:03:43;14.00;14.00;9.25